Time;durP1;ratioP1;P1;durP2;ratioP2;P2;SDS_P1;SDS_P2;PMS_P1;PMS_P2;Temp;Humidity;BMP_temperature;BMP_pressure;BME280_temperature;BME280_humidity;BME280_pressure;Samples;Min_cycle;Max_cycle;Signal;HPM_P1;HPM_P2
2021/11/24 00:01:06;;;;;;;34.17;11.80;;;9.00;83.60;;;;;;5063366;28;20036;-62
2021/11/24 00:03:32;;;;;;;37.65;12.23;;;8.90;83.80;;;;;;5062093;28;20052;-62
2021/11/24 00:05:57;;;;;;;29.45;12.15;;;8.90;84.50;;;;;;5028247;28;20043;-62
2021/11/24 00:08:23;;;;;;;39.30;12.88;;;8.90;84.00;;;;;;5029602;28;20043;-62
2021/11/24 00:10:48;;;;;;;35.08;14.18;;;8.90;83.70;;;;;;5030436;28;20024;-62
2021/11/24 00:13:14;;;;;;;36.17;12.57;;;8.90;83.90;;;;;;5014458;28;20040;-62
2021/11/24 00:15:40;;;;;;;34.17;12.88;;;8.90;83.70;;;;;;5046305;28;20023;-62
2021/11/24 00:18:05;;;;;;;25.55;12.88;;;8.80;83.70;;;;;;5063240;28;20025;-62
2021/11/24 00:20:31;;;;;;;41.42;12.30;;;8.80;83.90;;;;;;5044367;28;20496;-62
2021/11/24 00:22:56;;;;;;;39.40;14.30;;;8.80;83.90;;;;;;5048360;28;20040;-62
2021/11/24 00:25:22;;;;;;;28.33;13.52;;;8.80;83.80;;;;;;5065962;28;20025;-62
2021/11/24 00:27:47;;;;;;;43.15;14.98;;;8.70;83.80;;;;;;5012113;28;20025;-62
2021/11/24 00:30:13;;;;;;;39.72;15.07;;;8.70;83.80;;;;;;5029133;28;20052;-62
2021/11/24 00:32:38;;;;;;;44.25;14.25;;;8.70;83.70;;;;;;5026514;28;20430;-62
2021/11/24 00:35:05;;;;;;;30.85;13.15;;;8.70;83.90;;;;;;5045399;28;20154;-62
2021/11/24 00:37:31;;;;;;;29.85;13.70;;;8.70;84.00;;;;;;5044769;28;20062;-62
2021/11/24 00:39:56;;;;;;;30.80;12.95;;;8.70;84.20;;;;;;5027829;28;20295;-62
2021/11/24 00:42:22;;;;;;;25.58;12.95;;;8.70;84.10;;;;;;5063353;28;20031;-63
2021/11/24 00:44:47;;;;;;;39.28;13.07;;;8.70;84.00;;;;;;5042388;28;20487;-62
2021/11/24 00:47:13;;;;;;;54.35;14.13;;;8.60;84.00;;;;;;5063525;28;20127;-62
2021/11/24 00:49:39;;;;;;;48.63;14.00;;;8.60;84.10;;;;;;5046526;28;20032;-62
2021/11/24 00:52:05;;;;;;;34.75;13.57;;;8.60;84.00;;;;;;5021491;28;20032;-62
2021/11/24 00:54:31;;;;;;;40.65;14.13;;;8.60;84.20;;;;;;5050432;28;20025;-61
2021/11/24 00:56:56;;;;;;;36.53;13.55;;;8.60;84.10;;;;;;5062099;28;20043;-62
2021/11/24 00:59:22;;;;;;;41.53;13.32;;;8.60;84.10;;;;;;5028107;28;20117;-62
2021/11/24 01:01:47;;;;;;;29.95;12.88;;;8.60;84.30;;;;;;5029752;28;20544;-62
2021/11/24 01:04:13;;;;;;;37.63;12.85;;;8.50;84.10;;;;;;5047452;28;20499;-62
2021/11/24 01:06:38;;;;;;;31.45;13.30;;;8.60;84.40;;;;;;5046463;28;20488;-62
2021/11/24 01:09:04;;;;;;;21.20;12.82;;;8.50;84.30;;;;;;5028033;28;20048;-62
2021/11/24 01:11:30;;;;;;;34.67;13.38;;;8.50;84.40;;;;;;5028173;28;20048;-62
2021/11/24 01:13:55;;;;;;;22.85;11.93;;;8.50;84.50;;;;;;5012141;28;20036;-62
2021/11/24 01:16:21;;;;;;;23.15;12.15;;;8.50;84.70;;;;;;5030290;28;20021;-62
2021/11/24 01:18:46;;;;;;;26.65;11.93;;;8.50;84.60;;;;;;5044523;28;20033;-62
2021/11/24 01:21:12;;;;;;;26.02;13.30;;;8.50;84.80;;;;;;5029355;28;20040;-62
2021/11/24 01:23:37;;;;;;;25.13;13.80;;;8.50;84.50;;;;;;5062403;28;20256;-61
2021/11/24 01:26:03;;;;;;;22.90;13.07;;;8.50;84.40;;;;;;5043255;28;20381;-62
2021/11/24 01:28:28;;;;;;;21.88;13.45;;;8.50;84.80;;;;;;5028362;28;20044;-62
2021/11/24 01:30:54;;;;;;;19.50;13.27;;;8.50;84.70;;;;;;5065168;28;20119;-62
2021/11/24 01:33:20;;;;;;;28.25;13.05;;;8.40;84.80;;;;;;5044894;28;20496;-62
2021/11/24 01:35:45;;;;;;;24.90;14.05;;;8.40;85.00;;;;;;5061800;28;20131;-62
2021/11/24 01:38:11;;;;;;;32.25;14.02;;;8.40;84.90;;;;;;5044278;28;20040;-61
2021/11/24 01:40:36;;;;;;;23.75;12.00;;;8.40;84.90;;;;;;5062935;28;20032;-63
2021/11/24 01:43:02;;;;;;;17.95;13.05;;;8.40;85.10;;;;;;5014016;28;20430;-61
2021/11/24 01:45:27;;;;;;;17.70;13.13;;;8.40;85.00;;;;;;5045848;28;20033;-62
2021/11/24 01:47:53;;;;;;;29.23;12.25;;;8.50;85.10;;;;;;5011383;28;20074;-62
2021/11/24 01:50:19;;;;;;;19.45;12.48;;;8.40;85.10;;;;;;5059392;28;20559;-62
2021/11/24 01:52:45;;;;;;;20.77;12.48;;;8.40;85.10;;;;;;5042371;28;20044;-62
2021/11/24 01:55:11;;;;;;;21.65;12.75;;;8.40;85.00;;;;;;5028257;28;20031;-62
2021/11/24 01:57:43;;;;;;;17.95;13.50;;;8.40;85.20;;;;;;5041362;28;20557;-62
2021/11/24 02:00:09;;;;;;;21.25;13.18;;;8.40;85.20;;;;;;5028951;28;20224;-62
2021/11/24 02:02:35;;;;;;;17.33;12.68;;;8.40;85.00;;;;;;5042022;28;20036;-62
2021/11/24 02:05:00;;;;;;;18.88;12.93;;;8.40;85.00;;;;;;5042371;28;20036;-62
2021/11/24 02:07:26;;;;;;;20.73;13.30;;;8.40;85.00;;;;;;5060305;28;20116;-62
2021/11/24 02:09:51;;;;;;;64.82;15.35;;;8.40;85.00;;;;;;5029640;28;20155;-62
2021/11/24 02:12:17;;;;;;;50.28;15.23;;;8.40;84.90;;;;;;5044571;28;20123;-62
2021/11/24 02:14:43;;;;;;;74.50;17.10;;;8.30;85.00;;;;;;5028311;28;20029;-62
2021/11/24 02:17:09;;;;;;;66.63;17.85;;;8.40;85.00;;;;;;5043619;28;20062;-62
2021/11/24 02:19:35;;;;;;;52.25;15.50;;;8.30;85.10;;;;;;5059221;28;20260;-61
2021/11/24 02:22:01;;;;;;;37.88;15.70;;;8.30;85.10;;;;;;5027069;28;20175;-62
2021/11/24 02:24:31;;;;;;;43.80;16.42;;;8.30;85.10;;;;;;5030534;28;20021;-62
2021/11/24 02:26:57;;;;;;;39.17;15.23;;;8.30;85.10;;;;;;5026814;28;20036;-62
2021/11/24 02:29:22;;;;;;;37.20;13.55;;;8.30;85.20;;;;;;5041585;28;20029;-62
2021/11/24 02:31:49;;;;;;;31.23;13.75;;;8.20;85.10;;;;;;5025795;28;20041;-61
2021/11/24 02:34:15;;;;;;;26.23;14.30;;;8.20;85.00;;;;;;5028395;28;20047;-62
2021/11/24 02:36:40;;;;;;;36.80;15.40;;;8.20;85.10;;;;;;5044501;28;20043;-62
2021/11/24 02:39:06;;;;;;;25.80;13.75;;;8.20;85.10;;;;;;5062124;28;20045;-62
2021/11/24 02:41:31;;;;;;;32.63;13.00;;;8.20;85.10;;;;;;5060803;28;20052;-62
2021/11/24 02:43:57;;;;;;;28.92;13.88;;;8.20;85.10;;;;;;5059967;28;20044;-62
2021/11/24 02:46:24;;;;;;;33.42;14.35;;;8.20;85.10;;;;;;5044128;28;20031;-62
2021/11/24 02:48:50;;;;;;;35.47;14.35;;;8.20;85.20;;;;;;5026720;28;20060;-62
2021/11/24 02:51:16;;;;;;;27.73;14.23;;;8.20;85.30;;;;;;5026503;28;20377;-63
2021/11/24 02:53:42;;;;;;;28.88;14.43;;;8.20;85.20;;;;;;5025939;28;20379;-62
2021/11/24 02:56:08;;;;;;;21.88;14.40;;;8.10;85.20;;;;;;5043005;28;20518;-62
2021/11/24 02:58:33;;;;;;;21.27;12.90;;;8.10;85.10;;;;;;5040841;28;20032;-62
2021/11/24 03:01:00;;;;;;;22.58;14.20;;;8.10;85.10;;;;;;5027075;28;20032;-62
2021/11/24 03:03:25;;;;;;;26.42;13.48;;;8.10;85.10;;;;;;5059560;28;20105;-62
2021/11/24 03:05:51;;;;;;;29.02;13.68;;;8.10;85.00;;;;;;5061111;28;21085;-62
2021/11/24 03:08:16;;;;;;;27.33;13.50;;;8.10;85.20;;;;;;5060897;28;20248;-62
2021/11/24 03:10:42;;;;;;;26.45;13.50;;;8.10;85.30;;;;;;5043752;28;20631;-62
2021/11/24 03:13:07;;;;;;;24.42;13.65;;;8.10;85.10;;;;;;5060496;28;20025;-62
2021/11/24 03:15:33;;;;;;;25.38;13.55;;;8.10;85.10;;;;;;5026812;28;20017;-62
2021/11/24 03:17:59;;;;;;;19.70;13.82;;;8.00;85.10;;;;;;5026298;28;20032;-62
2021/11/24 03:20:26;;;;;;;20.73;12.50;;;8.00;85.20;;;;;;5059545;28;20039;-62
2021/11/24 03:22:52;;;;;;;21.42;13.65;;;8.00;85.30;;;;;;5026623;28;20028;-62
2021/11/24 03:25:18;;;;;;;17.85;13.15;;;8.00;85.40;;;;;;5061723;28;20387;-62
2021/11/24 03:27:43;;;;;;;18.23;12.80;;;8.00;85.50;;;;;;5042615;28;20033;-62
2021/11/24 03:30:18;;;;;;;15.85;12.75;;;8.00;85.50;;;;;;5040262;28;20052;-62
2021/11/24 03:32:44;;;;;;;19.48;12.20;;;8.00;85.50;;;;;;5061782;28;20044;-62
2021/11/24 03:35:09;;;;;;;17.85;12.40;;;8.00;85.60;;;;;;5031581;28;20431;-62
2021/11/24 03:37:35;;;;;;;16.80;12.98;;;8.00;85.60;;;;;;5046538;28;20107;-62
2021/11/24 03:40:00;;;;;;;16.45;12.05;;;8.00;85.60;;;;;;5047754;28;20056;-62
2021/11/24 03:42:26;;;;;;;15.95;12.27;;;7.90;85.60;;;;;;5030955;28;20067;-62
2021/11/24 03:44:52;;;;;;;20.58;12.77;;;8.00;85.90;;;;;;5065549;28;20444;-62
2021/11/24 03:47:18;;;;;;;18.27;13.75;;;7.90;86.00;;;;;;5045807;28;20462;-63
2021/11/24 03:49:43;;;;;;;15.15;12.98;;;7.90;86.00;;;;;;5030994;28;20120;-62
2021/11/24 03:52:09;;;;;;;20.42;13.00;;;7.90;86.00;;;;;;5021262;28;20047;-62
2021/11/24 03:54:35;;;;;;;15.82;12.77;;;7.90;86.00;;;;;;5034543;28;20147;-62
2021/11/24 03:57:01;;;;;;;19.73;12.98;;;7.90;86.00;;;;;;5029812;28;20530;-62
2021/11/24 03:59:26;;;;;;;15.90;12.90;;;7.90;86.10;;;;;;5062554;28;20482;-62
2021/11/24 04:01:52;;;;;;;24.65;12.48;;;7.90;86.80;;;;;;5064495;28;20033;-62
2021/11/24 04:04:17;;;;;;;16.00;12.98;;;7.80;86.10;;;;;;5030488;28;20431;-62
2021/11/24 04:06:43;;;;;;;15.07;12.85;;;7.90;86.20;;;;;;5046124;28;20079;-62
2021/11/24 04:09:08;;;;;;;16.08;13.52;;;7.90;86.10;;;;;;5028262;28;20024;-62
2021/11/24 04:11:34;;;;;;;16.77;12.88;;;7.90;86.10;;;;;;5029877;28;20024;-62
2021/11/24 04:13:59;;;;;;;14.25;12.80;;;7.80;86.10;;;;;;5012382;28;20802;-62
2021/11/24 04:16:25;;;;;;;15.75;12.88;;;7.80;86.00;;;;;;5012576;28;20071;-62
2021/11/24 04:18:50;;;;;;;14.52;12.50;;;7.80;86.10;;;;;;5045908;28;20033;-62
2021/11/24 04:21:16;;;;;;;17.02;12.70;;;7.80;86.00;;;;;;5062709;28;20404;-62
2021/11/24 04:23:42;;;;;;;16.83;13.90;;;7.80;86.10;;;;;;5028764;28;20028;-62
2021/11/24 04:26:08;;;;;;;14.35;12.85;;;7.80;86.00;;;;;;5045386;28;20039;-62
2021/11/24 04:28:33;;;;;;;16.95;12.57;;;7.80;86.10;;;;;;5044280;28;20035;-61
2021/11/24 04:30:59;;;;;;;14.23;12.52;;;7.80;86.10;;;;;;5064339;28;20032;-62
2021/11/24 04:33:24;;;;;;;14.25;12.75;;;7.80;86.10;;;;;;5064072;28;20036;-62
2021/11/24 04:35:50;;;;;;;13.98;11.75;;;7.80;86.20;;;;;;5062881;28;20024;-62
2021/11/24 04:38:15;;;;;;;13.95;12.45;;;7.80;86.10;;;;;;5026160;28;20037;-62
2021/11/24 04:40:41;;;;;;;14.38;12.32;;;7.80;86.00;;;;;;5009195;28;20056;-62
2021/11/24 04:43:10;;;;;;;14.43;12.98;;;7.80;86.10;;;;;;5028670;28;20494;-62
2021/11/24 04:45:35;;;;;;;16.27;12.73;;;7.70;86.00;;;;;;5059695;28;20028;-62
2021/11/24 04:48:01;;;;;;;13.95;12.45;;;7.80;85.90;;;;;;5043725;28;20035;-63
2021/11/24 04:50:26;;;;;;;13.13;11.73;;;7.70;85.90;;;;;;5043700;28;20175;-61
2021/11/24 04:52:52;;;;;;;13.98;11.95;;;7.80;86.00;;;;;;5010027;28;20024;-62
2021/11/24 04:55:17;;;;;;;13.52;12.13;;;7.70;86.00;;;;;;5027198;28;20037;-62
2021/11/24 04:57:43;;;;;;;16.85;12.07;;;7.70;86.00;;;;;;5044064;28;20048;-62
2021/11/24 05:00:14;;;;;;;15.77;12.45;;;7.70;86.10;;;;;;5025367;28;20024;-64
2021/11/24 05:02:39;;;;;;;13.70;12.40;;;7.70;86.00;;;;;;5044564;28;20086;-62
2021/11/24 05:05:05;;;;;;;13.15;11.38;;;7.70;86.10;;;;;;5011708;28;20036;-62
2021/11/24 05:07:31;;;;;;;14.18;11.55;;;7.70;86.20;;;;;;5029012;28;20037;-62
2021/11/24 05:09:56;;;;;;;13.65;12.13;;;7.70;86.20;;;;;;5044386;28;20035;-62
2021/11/24 05:12:22;;;;;;;14.30;11.45;;;7.70;86.20;;;;;;5044990;28;20116;-62
2021/11/24 05:14:50;;;;;;;12.43;11.18;;;7.70;86.00;;;;;;5044582;28;20024;-62
2021/11/24 05:17:17;;;;;;;12.95;10.93;;;7.70;86.10;;;;;;5027717;28;20036;-62
2021/11/24 05:19:47;;;;;;;12.38;11.18;;;7.70;86.00;;;;;;5046740;28;20052;-62
2021/11/24 05:22:13;;;;;;;13.55;12.23;;;7.70;86.00;;;;;;5030306;28;20020;-62
2021/11/24 05:24:38;;;;;;;12.60;11.30;;;7.60;86.10;;;;;;5047611;28;20205;-62
2021/11/24 05:27:04;;;;;;;15.00;11.35;;;7.70;86.20;;;;;;5042941;28;20108;-62
2021/11/24 05:29:30;;;;;;;11.35;10.15;;;7.70;86.20;;;;;;5026514;28;20020;-62
2021/11/24 05:31:55;;;;;;;12.77;10.93;;;7.60;86.00;;;;;;5043950;28;20031;-62
2021/11/24 05:34:21;;;;;;;12.40;10.93;;;7.60;86.20;;;;;;5063082;28;20091;-62
2021/11/24 05:36:46;;;;;;;14.05;10.98;;;7.60;86.20;;;;;;5012295;28;20031;-62
2021/11/24 05:39:12;;;;;;;14.40;11.60;;;7.60;86.20;;;;;;5061147;28;20050;-61
2021/11/24 05:41:39;;;;;;;12.48;11.07;;;7.60;86.30;;;;;;5029009;28;20024;-62
2021/11/24 05:44:17;;;;;;;13.07;11.50;;;7.60;86.20;;;;;;5012297;28;20438;-62
2021/11/24 05:46:47;;;;;;;17.33;10.88;;;7.60;86.20;;;;;;5030556;28;20542;-61
2021/11/24 05:49:13;;;;;;;17.25;11.18;;;7.60;86.20;;;;;;5063737;28;20047;-62
2021/11/24 05:51:38;;;;;;;12.77;11.18;;;7.60;86.20;;;;;;5064616;28;20111;-62
2021/11/24 05:54:04;;;;;;;15.48;10.98;;;7.60;86.20;;;;;;5063637;28;20494;-62
2021/11/24 05:56:30;;;;;;;12.98;11.55;;;7.50;86.10;;;;;;5044319;28;21422;-62
2021/11/24 05:58:55;;;;;;;12.38;11.07;;;7.50;86.20;;;;;;5023247;28;20510;-63
2021/11/24 06:01:21;;;;;;;12.57;11.07;;;7.50;86.20;;;;;;5045503;28;20047;-61
2021/11/24 06:03:46;;;;;;;12.70;11.48;;;7.50;86.30;;;;;;5029163;28;20052;-62
2021/11/24 06:06:12;;;;;;;13.32;11.20;;;7.50;86.40;;;;;;5062536;28;20111;-62
2021/11/24 06:08:37;;;;;;;12.18;10.98;;;7.50;86.30;;;;;;5022770;28;20029;-62
2021/11/24 06:11:03;;;;;;;11.60;10.40;;;7.50;86.30;;;;;;5062172;28;20032;-62
2021/11/24 06:13:28;;;;;;;12.45;11.25;;;7.50;86.20;;;;;;5043089;28;20388;-62
2021/11/24 06:15:54;;;;;;;12.52;11.23;;;7.50;86.30;;;;;;5028578;28;20035;-62
2021/11/24 06:18:20;;;;;;;12.27;10.80;;;7.40;86.30;;;;;;5044532;28;20033;-61
2021/11/24 06:20:46;;;;;;;12.02;10.80;;;7.50;86.40;;;;;;5044199;28;20024;-62
2021/11/24 06:23:12;;;;;;;12.27;11.05;;;7.40;86.40;;;;;;5059859;28;20647;-61
2021/11/24 06:25:37;;;;;;;12.23;10.95;;;7.40;86.40;;;;;;5041505;28;20124;-62
2021/11/24 06:28:04;;;;;;;11.18;10.10;;;7.40;86.30;;;;;;5025718;28;20054;-62
2021/11/24 06:30:29;;;;;;;12.10;10.68;;;7.40;86.50;;;;;;5041517;28;20029;-61
2021/11/24 06:32:55;;;;;;;11.98;10.77;;;7.40;86.20;;;;;;5057281;28;20035;-62
2021/11/24 06:35:20;;;;;;;12.25;10.88;;;7.40;86.30;;;;;;5024434;28;20454;-62
2021/11/24 06:37:46;;;;;;;12.68;11.30;;;7.40;86.40;;;;;;5038271;28;20044;-61
2021/11/24 06:40:12;;;;;;;11.38;10.18;;;7.40;86.40;;;;;;5043361;28;20070;-62
2021/11/24 06:42:38;;;;;;;12.20;11.00;;;7.40;86.40;;;;;;5060924;28;20024;-62
2021/11/24 06:45:04;;;;;;;12.27;10.90;;;7.30;86.40;;;;;;5040277;28;20046;-62
2021/11/24 06:47:29;;;;;;;12.00;10.73;;;7.30;86.50;;;;;;5060029;28;20612;-62
2021/11/24 06:49:55;;;;;;;12.30;11.00;;;7.30;86.40;;;;;;5020463;28;20045;-62
2021/11/24 06:52:20;;;;;;;11.77;10.57;;;7.30;86.20;;;;;;5022826;28;20049;-62
2021/11/24 06:54:46;;;;;;;11.50;10.30;;;7.30;86.30;;;;;;5026233;28;20112;-62
2021/11/24 06:57:11;;;;;;;12.50;11.13;;;7.30;86.30;;;;;;5060944;28;20028;-62
2021/11/24 06:59:37;;;;;;;11.32;10.23;;;7.30;86.40;;;;;;5040487;28;21482;-62
2021/11/24 07:02:03;;;;;;;11.20;9.90;;;7.20;86.50;;;;;;5040292;28;20032;-62
2021/11/24 07:04:29;;;;;;;14.40;10.80;;;7.30;86.60;;;;;;4989605;28;1033591;-62
2021/11/24 07:06:54;;;;;;;11.48;10.27;;;7.10;86.30;;;;;;5060824;28;20287;-62
2021/11/24 07:09:22;;;;;;;16.73;10.82;;;7.20;86.50;;;;;;5042496;28;20223;-62
2021/11/24 07:11:48;;;;;;;12.50;11.25;;;7.30;86.60;;;;;;5029926;28;20059;-62
2021/11/24 07:14:13;;;;;;;12.00;10.57;;;7.40;86.70;;;;;;5064122;28;20492;-62
2021/11/24 07:16:38;;;;;;;12.48;10.38;;;7.30;86.80;;;;;;5013011;28;20044;-62
2021/11/24 07:19:04;;;;;;;14.52;10.18;;;7.30;86.70;;;;;;5044403;28;20024;-62
2021/11/24 07:21:30;;;;;;;11.23;10.02;;;7.30;86.60;;;;;;5046938;28;20288;-62
2021/11/24 07:23:55;;;;;;;11.18;9.85;;;7.30;86.60;;;;;;5047114;28;20028;-63
2021/11/24 07:26:21;;;;;;;16.52;11.00;;;7.30;86.60;;;;;;5011253;28;20029;-62
2021/11/24 07:28:46;;;;;;;14.60;10.63;;;7.30;86.60;;;;;;5045651;28;20549;-62
2021/11/24 07:31:12;;;;;;;13.57;10.63;;;7.30;87.20;;;;;;5047329;28;20086;-62
2021/11/24 07:33:37;;;;;;;18.50;10.13;;;7.30;86.50;;;;;;5025223;28;20132;-62
2021/11/24 07:36:03;;;;;;;12.30;10.50;;;7.40;86.70;;;;;;5029845;28;20025;-62
2021/11/24 07:38:29;;;;;;;11.70;10.52;;;7.30;86.60;;;;;;5047711;28;20036;-62
2021/11/24 07:40:54;;;;;;;12.57;10.15;;;7.40;86.60;;;;;;5065016;28;20502;-61
2021/11/24 07:43:20;;;;;;;18.35;10.50;;;7.40;86.70;;;;;;5030105;28;20052;-61
2021/11/24 07:45:45;;;;;;;16.73;10.80;;;7.40;87.10;;;;;;5012519;28;20052;-62
2021/11/24 07:48:11;;;;;;;26.88;10.65;;;7.40;86.70;;;;;;5042324;28;20310;-62
2021/11/24 07:50:37;;;;;;;22.85;11.20;;;7.40;86.70;;;;;;5044543;28;20028;-62
2021/11/24 07:53:03;;;;;;;17.63;10.57;;;7.40;86.60;;;;;;5063133;28;20036;-66
2021/11/24 07:55:28;;;;;;;16.63;10.05;;;7.40;86.60;;;;;;5046240;28;20028;-62
2021/11/24 07:57:54;;;;;;;25.38;11.57;;;7.40;86.60;;;;;;5064956;28;20021;-62
2021/11/24 08:00:19;;;;;;;32.15;11.60;;;7.40;86.70;;;;;;5066124;28;20113;-62
2021/11/24 08:02:45;;;;;;;23.33;11.38;;;7.50;86.70;;;;;;5044629;28;20048;-63
2021/11/24 08:05:10;;;;;;;34.38;12.20;;;7.50;86.90;;;;;;5049744;28;20066;-62
2021/11/24 08:07:36;;;;;;;42.95;12.85;;;7.50;86.80;;;;;;5015759;28;20430;-62
2021/11/24 08:10:06;;;;;;;33.13;12.15;;;7.50;86.80;;;;;;5048551;28;20070;-62
2021/11/24 08:12:31;;;;;;;32.20;12.18;;;7.50;86.80;;;;;;5048403;28;20116;-62
2021/11/24 08:14:57;;;;;;;19.23;10.95;;;7.50;86.80;;;;;;5048234;28;20670;-62
2021/11/24 08:17:22;;;;;;;39.65;11.85;;;7.50;86.70;;;;;;5063747;28;20035;-62
2021/11/24 08:19:49;;;;;;;40.58;11.90;;;7.50;86.60;;;;;;5044250;28;20105;-62
2021/11/24 08:22:14;;;;;;;25.55;11.65;;;7.50;86.60;;;;;;5047906;28;20435;-62
2021/11/24 08:24:40;;;;;;;50.97;13.07;;;7.50;86.50;;;;;;5032344;28;20017;-62
2021/11/24 08:27:05;;;;;;;28.85;12.18;;;7.50;86.60;;;;;;5031271;28;20032;-62
2021/11/24 08:29:31;;;;;;;34.22;12.10;;;7.50;86.50;;;;;;5062711;28;20115;-62
2021/11/24 08:31:56;;;;;;;40.22;12.30;;;7.50;86.60;;;;;;5064593;28;20029;-62
2021/11/24 08:34:22;;;;;;;39.78;13.73;;;7.50;86.60;;;;;;5047423;28;20028;-62
2021/11/24 08:36:49;;;;;;;43.03;13.13;;;7.50;86.50;;;;;;5062163;28;20052;-62
2021/11/24 08:39:15;;;;;;;35.55;11.82;;;7.50;86.50;;;;;;5046532;28;20131;-62
2021/11/24 08:41:41;;;;;;;33.35;13.15;;;7.50;86.50;;;;;;5046737;28;20119;-62
2021/11/24 08:44:06;;;;;;;52.67;12.77;;;7.50;86.50;;;;;;5012851;28;20028;-62
2021/11/24 08:46:32;;;;;;;43.33;12.45;;;7.50;86.50;;;;;;5022186;28;20066;-62
2021/11/24 08:48:57;;;;;;;29.95;12.60;;;7.60;86.50;;;;;;5058685;28;20028;-62
2021/11/24 08:51:23;;;;;;;42.10;13.75;;;7.60;86.40;;;;;;5013347;28;20495;-62
2021/11/24 08:53:48;;;;;;;43.75;14.73;;;7.60;86.40;;;;;;5018135;28;20033;-63
2021/11/24 08:56:14;;;;;;;43.85;12.00;;;7.60;86.40;;;;;;5047553;28;20029;-62
2021/11/24 08:58:40;;;;;;;44.28;12.88;;;7.60;86.30;;;;;;5063798;28;20538;-62
2021/11/24 09:01:06;;;;;;;56.67;14.50;;;7.60;86.40;;;;;;5048127;28;20024;-62
2021/11/24 09:03:32;;;;;;;56.13;14.48;;;7.60;86.40;;;;;;5063001;28;20127;-62
2021/11/24 09:05:59;;;;;;;51.20;13.63;;;7.60;86.30;;;;;;5048419;28;20099;-62
2021/11/24 09:08:24;;;;;;;58.40;14.27;;;7.60;86.40;;;;;;5014350;28;20599;-62
2021/11/24 09:10:50;;;;;;;43.88;13.73;;;7.60;86.30;;;;;;5063856;28;20117;-62
2021/11/24 09:13:15;;;;;;;42.83;13.57;;;7.60;86.30;;;;;;5026887;28;20067;-62
2021/11/24 09:15:41;;;;;;;41.25;12.38;;;7.60;86.30;;;;;;5062899;28;20543;-62
2021/11/24 09:18:07;;;;;;;44.05;13.23;;;7.60;86.30;;;;;;5024849;28;20028;-62
2021/11/24 09:20:34;;;;;;;60.75;14.57;;;7.70;86.30;;;;;;5012921;28;20662;-62
2021/11/24 09:23:01;;;;;;;49.63;14.02;;;7.60;86.30;;;;;;5065375;28;20020;-62
2021/11/24 09:25:36;;;;;;;38.38;13.02;;;7.60;86.30;;;;;;5014345;28;20055;-62
2021/11/24 09:28:08;;;;;;;49.53;11.80;;;7.60;86.30;;;;;;5029905;28;20032;-62
2021/11/24 09:30:34;;;;;;;56.08;14.23;;;7.60;86.50;;;;;;5062162;28;20029;-62
2021/11/24 09:32:59;;;;;;;43.70;13.40;;;7.60;86.70;;;;;;5041872;28;20802;-62
2021/11/24 09:35:25;;;;;;;38.03;13.23;;;7.60;86.50;;;;;;5041483;28;20040;-62
2021/11/24 09:37:50;;;;;;;54.58;14.05;;;7.60;86.50;;;;;;5044440;28;20111;-61
2021/11/24 09:40:16;;;;;;;44.22;12.73;;;7.60;86.50;;;;;;5029208;28;20033;-62
2021/11/24 09:42:43;;;;;;;79.72;15.18;;;7.70;86.50;;;;;;5060654;28;20028;-62
2021/11/24 09:45:09;;;;;;;48.92;13.93;;;7.70;86.30;;;;;;5026399;28;20191;-62
2021/11/24 09:47:34;;;;;;;64.18;15.23;;;7.70;86.50;;;;;;5011520;28;20357;-61
2021/11/24 09:50:00;;;;;;;47.35;12.68;;;7.70;86.60;;;;;;5055554;28;20025;-62
2021/11/24 09:52:26;;;;;;;51.65;14.55;;;7.70;86.60;;;;;;5038347;28;20048;-62
2021/11/24 09:54:52;;;;;;;62.47;14.60;;;7.70;86.60;;;;;;5025209;28;20416;-62
2021/11/24 09:57:18;;;;;;;57.90;14.35;;;7.80;86.60;;;;;;5027703;28;20025;-62
2021/11/24 09:59:44;;;;;;;65.78;15.23;;;7.80;86.50;;;;;;5041220;28;20039;-60
2021/11/24 10:02:11;;;;;;;83.05;13.73;;;7.80;86.50;;;;;;5025927;28;20017;-60
2021/11/24 10:04:37;;;;;;;53.88;14.88;;;7.80;86.50;;;;;;5027055;28;20036;-60
2021/11/24 10:07:02;;;;;;;66.15;15.40;;;7.80;86.60;;;;;;5029935;28;20029;-60
2021/11/24 10:09:28;;;;;;;77.70;15.35;;;7.80;86.60;;;;;;5009430;28;20036;-60
2021/11/24 10:11:53;;;;;;;59.72;14.88;;;7.80;86.60;;;;;;5011685;28;20032;-60
2021/11/24 10:14:19;;;;;;;61.67;15.70;;;7.90;86.50;;;;;;5062915;28;20101;-60
2021/11/24 10:16:46;;;;;;;68.30;14.85;;;7.90;86.50;;;;;;5026765;28;20238;-60
2021/11/24 10:19:12;;;;;;;64.15;13.13;;;7.90;86.50;;;;;;5055767;28;20032;-60
2021/11/24 10:21:55;;;;;;;54.80;14.52;;;7.90;86.40;;;;;;5037293;28;20028;-60
2021/11/24 10:24:31;;;;;;;77.30;14.70;;;7.90;86.40;;;;;;5043342;28;20204;-60
2021/11/24 10:26:57;;;;;;;44.28;12.95;;;7.90;86.30;;;;;;5043415;28;20421;-60
2021/11/24 10:29:23;;;;;;;50.40;14.05;;;8.00;86.30;;;;;;5041711;28;20123;-60
2021/11/24 10:32:06;;;;;;;53.05;14.38;;;8.00;86.40;;;;;;5044670;28;20037;-60
2021/11/24 10:34:39;;;;;;;50.90;15.25;;;8.00;86.50;;;;;;5039807;28;20027;-60
2021/11/24 10:37:06;;;;;;;48.60;13.25;;;7.90;86.50;;;;;;5028150;28;20499;-60
2021/11/24 10:39:39;;;;;;;46.40;13.43;;;8.00;86.50;;;;;;5041358;28;20024;-60
2021/11/24 10:42:12;;;;;;;38.83;13.80;;;8.00;86.50;;;;;;5038947;28;20033;-59
2021/11/24 10:44:38;;;;;;;49.10;13.63;;;8.00;86.50;;;;;;5041514;28;20020;-62
2021/11/24 10:47:06;;;;;;;52.63;13.82;;;8.00;86.80;;;;;;5044024;28;20380;-62
2021/11/24 10:49:55;;;;;;;40.65;13.05;;;8.10;86.90;;;;;;5043486;28;20371;-62
2021/11/24 10:52:25;;;;;;;41.58;14.00;;;8.00;86.60;;;;;;5027169;28;20040;-62
2021/11/24 10:55:11;;;;;;;47.92;13.68;;;8.00;86.70;;;;;;5042337;28;20028;-62
2021/11/24 10:57:37;;;;;;;;;;;8.00;86.90;;;;;;5027540;28;20029;-62
2021/11/24 11:00:16;;;;;;;56.22;13.60;;;8.00;87.00;;;;;;5061922;28;19923;-62
2021/11/24 11:02:47;;;;;;;67.97;15.90;;;8.10;87.10;;;;;;5041907;28;20028;-62
2021/11/24 11:05:17;;;;;;;48.88;15.18;;;8.10;86.90;;;;;;5043347;28;20453;-62
2021/11/24 11:07:59;;;;;;;73.07;17.98;;;8.10;86.90;;;;;;5043508;28;20036;-62
2021/11/24 11:10:33;;;;;;;59.72;14.18;;;8.10;86.90;;;;;;5043768;28;20045;-62
2021/11/24 11:13:04;;;;;;;43.78;13.65;;;8.10;86.80;;;;;;5044455;28;20036;-62
2021/11/24 11:15:36;;;;;;;56.80;13.73;;;8.10;86.60;;;;;;5044471;28;20025;-62
2021/11/24 11:18:04;;;;;;;46.85;13.30;;;8.20;86.50;;;;;;5060555;28;20036;-62
2021/11/24 11:20:32;;;;;;;52.38;13.25;;;8.10;86.50;;;;;;5059358;28;20052;-62
2021/11/24 11:23:09;;;;;;;66.28;14.93;;;8.20;86.60;;;;;;5043914;28;20085;-62
2021/11/24 11:25:36;;;;;;;66.50;15.00;;;8.20;86.80;;;;;;5027262;28;20020;-62
2021/11/24 11:28:02;;;;;;;75.85;14.93;;;8.20;86.80;;;;;;5045139;28;20035;-60
2021/11/24 11:30:28;;;;;;;56.58;15.63;;;8.20;86.90;;;;;;5009950;28;20025;-63
2021/11/24 11:32:54;;;;;;;45.47;13.85;;;8.20;87.90;;;;;;5022633;28;20585;-62
2021/11/24 11:35:19;;;;;;;58.67;15.80;;;8.20;87.30;;;;;;5020700;28;20025;-62
2021/11/24 11:37:45;;;;;;;41.90;14.20;;;8.20;87.20;;;;;;5051792;28;20056;-61
2021/11/24 11:40:17;;;;;;;54.17;13.85;;;8.30;87.20;;;;;;5034212;28;20040;-62
2021/11/24 11:42:47;;;;;;;53.90;15.20;;;8.30;87.20;;;;;;5037403;28;20020;-62
2021/11/24 11:45:14;;;;;;;52.67;15.15;;;8.30;87.10;;;;;;5008123;28;20029;-62
2021/11/24 11:47:47;;;;;;;60.05;15.50;;;8.30;87.20;;;;;;5038021;28;20025;-62
2021/11/24 11:50:14;;;;;;;73.55;16.10;;;8.40;87.30;;;;;;5019595;28;20036;-62
2021/11/24 11:52:40;;;;;;;64.40;15.20;;;8.40;87.50;;;;;;5015374;28;20037;-62
2021/11/24 11:55:21;;;;;;;68.97;15.48;;;8.40;87.60;;;;;;5055758;28;20553;-62
2021/11/24 11:57:47;;;;;;;68.57;16.75;;;8.50;87.50;;;;;;5063900;28;20174;-62
2021/11/24 12:00:13;;;;;;;49.33;13.60;;;8.50;87.90;;;;;;5039392;28;20500;-60
2021/11/24 12:02:49;;;;;;;79.10;15.52;;;8.50;87.50;;;;;;5028096;28;20741;-61
2021/11/24 12:05:15;;;;;;;60.47;14.95;;;8.60;87.30;;;;;;5025613;28;20083;-60
2021/11/24 12:08:09;;;;;;;59.90;14.65;;;8.60;87.10;;;;;;5054358;28;20033;-60
2021/11/24 12:10:54;;;;;;;69.78;15.05;;;8.80;87.20;;;;;;5031507;28;20043;-60
2021/11/24 12:13:29;;;;;;;94.00;17.30;;;8.70;87.00;;;;;;5052391;28;20361;-61
2021/11/24 12:15:55;;;;;;;59.13;15.35;;;8.70;87.20;;;;;;5035234;28;20028;-60
2021/11/24 12:18:20;;;;;;;72.35;16.63;;;8.70;87.00;;;;;;5037712;28;20036;-60
2021/11/24 12:20:46;;;;;;;48.00;13.25;;;8.70;86.80;;;;;;5021623;28;20032;-60
2021/11/24 12:23:12;;;;;;;57.22;15.00;;;8.70;86.90;;;;;;5008570;28;20036;-59
2021/11/24 12:25:38;;;;;;;65.78;14.52;;;8.70;86.90;;;;;;5017873;28;20424;-60
2021/11/24 12:28:07;;;;;;;62.15;15.00;;;8.80;86.90;;;;;;5058411;28;20037;-60
2021/11/24 12:31:09;;;;;;;58.25;14.93;;;8.80;86.90;;;;;;5040788;28;20037;-60
2021/11/24 12:33:31;;;;;;;78.10;15.73;;;8.80;86.90;;;;;;5046570;28;20063;-60
2021/11/24 12:36:10;;;;;;;55.50;15.57;;;8.80;86.90;;;;;;5042009;28;20028;-60